Time;durP1;ratioP1;P1;durP2;ratioP2;P2;SDS_P1;SDS_P2;PMS_P1;PMS_P2;Temp;Humidity;BMP_temperature;BMP_pressure;BME280_temperature;BME280_humidity;BME280_pressure;Samples;Min_cycle;Max_cycle;Signal;HPM_P1;HPM_P2
2023/01/11 00:01:16;;;;;;;7.43;3.70;;;;;;;;;;10384745;28;20029;-54
2023/01/11 00:06:16;;;;;;;6.18;3.75;;;;;;;;;;10400673;28;20237;-56
2023/01/11 00:11:17;;;;;;;6.78;3.42;;;;;;;;;;10392601;28;20092;-53
2023/01/11 00:16:18;;;;;;;7.35;4.28;;;;;;;;;;10383229;28;20038;-44
2023/01/11 00:21:18;;;;;;;7.85;3.90;;;;;;;;;;10379870;28;20071;-45
2023/01/11 00:26:19;;;;;;;7.68;3.75;;;;;;;;;;10383812;28;20040;-47
2023/01/11 00:31:20;;;;;;;7.20;3.53;;;;;;;;;;10377146;28;20489;-46
2023/01/11 00:36:20;;;;;;;5.05;3.35;;;;;;;;;;10393553;28;20026;-45
2023/01/11 00:52:00;;;;;;;6.28;3.70;;;;;;;;;;10400477;28;20120;-49
2023/01/11 00:57:01;;;;;;;6.55;3.60;;;;;;;;;;10390289;28;20472;-53
2023/01/11 01:02:03;;;;;;;7.05;3.70;;;;;;;;;;10383166;28;20033;-53
2023/01/11 01:07:04;;;;;;;6.20;3.25;;;;;;;;;;10395655;28;20105;-51
2023/01/11 01:12:07;;;;;;;6.88;3.53;;;;;;;;;;10409527;28;20030;-51
2023/01/11 01:17:08;;;;;;;6.32;3.25;;;;;;;;;;10409768;28;20033;-46
2023/01/11 01:22:09;;;;;;;5.43;2.90;;;;;;;;;;10387481;28;20041;-50
2023/01/11 01:27:14;;;;;;;7.22;2.88;;;;;;;;;;10386289;28;20067;-53
2023/01/11 01:32:15;;;;;;;5.10;3.33;;;;;;;;;;10392958;28;20310;-48
2023/01/11 01:37:15;;;;;;;5.40;3.35;;;;;;;;;;10403585;28;20259;-55
2023/01/11 01:42:19;;;;;;;7.38;3.28;;;;;;;;;;10396758;28;20087;-55
2023/01/11 01:47:33;;;;;;;4.85;3.13;;;;;;;;;;10401534;28;20017;-54
2023/01/11 01:52:35;;;;;;;3.95;2.85;;;;;;;;;;10395417;28;20046;-56
2023/01/11 01:57:38;;;;;;;6.10;3.35;;;;;;;;;;10390991;28;20092;-59
2023/01/11 02:02:42;;;;;;;5.75;3.05;;;;;;;;;;10404523;28;20389;-53
2023/01/11 02:07:43;;;;;;;6.72;3.22;;;;;;;;;;10396582;28;20188;-57
2023/01/11 02:13:01;;;;;;;5.82;2.78;;;;;;;;;;10399102;28;20458;-59
2023/01/11 02:18:02;;;;;;;5.45;3.42;;;;;;;;;;10390162;28;20036;-51
2023/01/11 02:23:34;;;;;;;3.88;2.65;;;;;;;;;;10388950;28;20469;-57
2023/01/11 02:28:52;;;;;;;4.35;2.90;;;;;;;;;;10382944;28;20497;-55
2023/01/11 02:34:06;;;;;;;;;;;;;;;;;;10392012;28;20038;-55
2023/01/11 02:39:33;;;;;;;4.68;2.95;;;;;;;;;;10399391;28;19912;-56
2023/01/11 02:45:01;;;;;;;4.28;2.72;;;;;;;;;;10407070;28;20314;-53
2023/01/11 02:50:31;;;;;;;3.70;3.10;;;;;;;;;;10398980;28;20112;-59
2023/01/11 02:55:39;;;;;;;5.57;3.30;;;;;;;;;;10346926;28;20045;-46
2023/01/11 03:00:41;;;;;;;4.90;3.08;;;;;;;;;;10344204;28;20038;-46
2023/01/11 03:06:01;;;;;;;3.97;2.67;;;;;;;;;;10350332;28;20042;-45
2023/01/11 03:12:50;;;;;;;4.13;2.53;;;;;;;;;;10344589;28;20030;-57
2023/01/11 03:16:53;;;;;;;5.88;2.85;;;;;;;;;;10360888;28;20049;-50
2023/01/11 03:22:46;;;;;;;4.70;3.13;;;;;;;;;;10351203;28;20096;-47
2023/01/11 03:28:14;;;;;;;5.72;2.60;;;;;;;;;;10328832;28;20492;-46
2023/01/11 03:33:55;;;;;;;3.20;2.50;;;;;;;;;;10345087;28;20045;-59
2023/01/11 03:39:10;;;;;;;2.90;2.50;;;;;;;;;;10343838;28;20038;-51
2023/01/11 03:44:13;;;;;;;5.18;2.65;;;;;;;;;;10352263;28;20026;-55
2023/01/11 03:49:35;;;;;;;4.68;2.90;;;;;;;;;;10347496;28;20034;-52
2023/01/11 03:54:37;;;;;;;4.68;2.80;;;;;;;;;;10389573;28;20050;-59
2023/01/11 03:59:39;;;;;;;4.28;2.53;;;;;;;;;;10392815;28;20037;-57
2023/01/11 04:04:39;;;;;;;3.10;2.42;;;;;;;;;;10392437;28;20033;-58
2023/01/11 04:09:40;;;;;;;4.20;2.65;;;;;;;;;;10395591;28;20040;-58
2023/01/11 04:14:41;;;;;;;2.78;2.30;;;;;;;;;;10394390;28;20092;-54
2023/01/11 04:19:41;;;;;;;3.85;2.55;;;;;;;;;;10400947;28;20029;-59
2023/01/11 04:24:42;;;;;;;3.13;2.65;;;;;;;;;;10399857;28;20943;-52
2023/01/11 04:29:42;;;;;;;3.35;2.45;;;;;;;;;;10388758;28;20029;-58
2023/01/11 04:34:43;;;;;;;4.13;2.28;;;;;;;;;;10385200;28;20440;-57
2023/01/11 04:39:43;;;;;;;6.00;2.78;;;;;;;;;;10385876;28;20401;-59
2023/01/11 04:44:47;;;;;;;3.35;2.35;;;;;;;;;;10401600;28;20381;-58
2023/01/11 04:49:49;;;;;;;2.28;2.08;;;;;;;;;;10398413;28;20038;-57
2023/01/11 04:54:51;;;;;;;4.05;2.67;;;;;;;;;;10407526;28;20496;-57
2023/01/11 04:59:51;;;;;;;5.15;2.15;;;;;;;;;;10397443;28;20037;-58
2023/01/11 05:04:52;;;;;;;4.57;2.50;;;;;;;;;;10394484;28;20033;-53
2023/01/11 05:09:52;;;;;;;3.45;2.40;;;;;;;;;;10399702;28;20041;-52
2023/01/11 05:14:53;;;;;;;3.70;2.40;;;;;;;;;;10394154;28;20040;-57
2023/01/11 05:19:54;;;;;;;3.10;2.20;;;;;;;;;;10409249;28;20095;-56
2023/01/11 05:24:54;;;;;;;2.22;2.00;;;;;;;;;;10410300;28;20029;-54
2023/01/11 05:29:55;;;;;;;2.72;2.08;;;;;;;;;;10396528;28;20034;-50
2023/01/11 05:34:55;;;;;;;2.50;2.30;;;;;;;;;;10388898;28;20026;-54
2023/01/11 05:39:56;;;;;;;3.08;2.17;;;;;;;;;;10396802;28;20041;-52
2023/01/11 05:50:16;;;;;;;3.70;2.58;;;;;;;;;;10398146;28;20030;-54
2023/01/11 05:55:17;;;;;;;2.30;2.08;;;;;;;;;;10392619;28;20033;-56
2023/01/11 06:00:18;;;;;;;5.22;2.20;;;;;;;;;;10382094;28;20149;-56
2023/01/11 06:05:18;;;;;;;2.50;2.00;;;;;;;;;;10398255;28;20152;-57
2023/01/11 06:10:19;;;;;;;4.07;2.13;;;;;;;;;;10398656;28;20021;-56
2023/01/11 06:15:19;;;;;;;2.78;2.13;;;;;;;;;;10405716;28;20025;-55
2023/01/11 06:20:20;;;;;;;2.95;2.05;;;;;;;;;;10410508;28;20191;-52
2023/01/11 06:25:21;;;;;;;4.85;2.47;;;;;;;;;;10389465;28;20040;-57
2023/01/11 06:30:24;;;;;;;5.72;2.42;;;;;;;;;;10402576;28;20026;-60
2023/01/11 06:35:25;;;;;;;9.68;2.40;;;;;;;;;;10392223;28;20067;-60
2023/01/11 06:40:25;;;;;;;3.42;2.70;;;;;;;;;;10393689;28;20033;-53
2023/01/11 06:45:26;;;;;;;8.20;2.80;;;;;;;;;;10390528;28;20030;-59
2023/01/11 06:50:26;;;;;;;3.30;2.80;;;;;;;;;;10384276;28;20026;-53
2023/01/11 06:55:28;;;;;;;4.70;2.80;;;;;;;;;;10385758;28;20041;-56
2023/01/11 07:00:29;;;;;;;13.95;3.10;;;;;;;;;;10400642;28;20037;-64
2023/01/11 07:05:32;;;;;;;12.60;3.25;;;;;;;;;;10393756;28;20048;-57
2023/01/11 07:10:33;;;;;;;10.02;3.10;;;;;;;;;;10398050;28;20400;-56
2023/01/11 07:15:33;;;;;;;7.22;2.65;;;;;;;;;;10385885;28;20032;-57
2023/01/11 07:20:34;;;;;;;16.73;3.67;;;;;;;;;;10403800;28;20040;-56
2023/01/11 07:25:36;;;;;;;6.32;3.17;;;;;;;;;;10407744;28;20029;-57
2023/01/11 07:30:38;;;;;;;9.93;2.90;;;;;;;;;;10394877;28;20073;-57
2023/01/11 07:35:39;;;;;;;14.98;3.63;;;;;;;;;;10391455;28;20428;-60
2023/01/11 07:40:39;;;;;;;15.98;2.97;;;;;;;;;;10396256;28;20029;-58
2023/01/11 07:45:47;;;;;;;8.18;3.10;;;;;;;;;;10406299;28;20021;-55
2023/01/11 07:50:48;;;;;;;9.68;3.17;;;;;;;;;;10396917;28;20114;-62
2023/01/11 07:55:49;;;;;;;5.00;3.00;;;;;;;;;;10378976;28;20038;-62
2023/01/11 08:00:50;;;;;;;9.73;2.80;;;;;;;;;;10390574;28;20427;-62
2023/01/11 08:05:51;;;;;;;11.52;3.10;;;;;;;;;;10392286;28;20044;-59
2023/01/11 08:16:10;;;;;;;5.15;2.58;;;;;;;;;;10401219;28;20029;-53
2023/01/11 08:21:11;;;;;;;6.28;2.75;;;;;;;;;;10405416;28;20033;-50
2023/01/11 08:26:15;;;;;;;6.20;2.65;;;;;;;;;;10400570;28;20025;-63
2023/01/11 08:31:16;;;;;;;3.28;2.50;;;;;;;;;;10397266;28;20156;-48
2023/01/11 08:36:17;;;;;;;7.03;3.10;;;;;;;;;;10402717;28;20587;-62
2023/01/11 08:41:17;;;;;;;3.63;2.72;;;;;;;;;;10390778;28;20017;-53
2023/01/11 08:46:20;;;;;;;7.22;3.05;;;;;;;;;;10385554;28;20029;-60
2023/01/11 08:51:21;;;;;;;7.63;3.03;;;;;;;;;;10381541;28;20405;-62
2023/01/11 08:56:21;;;;;;;4.90;3.00;;;;;;;;;;10396988;28;20045;-63
2023/01/11 09:01:22;;;;;;;3.63;2.90;;;;;;;;;;10401206;28;20087;-59
2023/01/11 09:06:23;;;;;;;4.32;2.75;;;;;;;;;;10384085;28;20029;-61
2023/01/11 09:16:43;;;;;;;6.85;3.10;;;;;;;;;;10385925;28;20041;-59
2023/01/11 09:21:46;;;;;;;4.75;3.08;;;;;;;;;;10383435;28;20029;-59
2023/01/11 09:26:47;;;;;;;5.07;3.53;;;;;;;;;;10382582;28;20416;-53
2023/01/11 09:31:47;;;;;;;6.20;3.03;;;;;;;;;;10385931;28;20030;-55
2023/01/11 09:36:48;;;;;;;4.90;3.25;;;;;;;;;;10395214;28;20021;-56
2023/01/11 09:42:14;;;;;;;7.25;3.40;;;;;;;;;;10398340;28;20397;-56
2023/01/11 09:48:03;;;;;;;9.10;3.72;;;;;;;;;;10375814;28;20033;-63
2023/01/11 09:53:08;;;;;;;5.95;3.42;;;;;;;;;;10366675;28;20086;-62
2023/01/11 09:58:49;;;;;;;6.40;3.50;;;;;;;;;;10381650;28;20237;-57
2023/01/11 10:03:58;;;;;;;7.68;3.70;;;;;;;;;;10393757;28;20036;-48
2023/01/11 10:09:26;;;;;;;6.40;3.50;;;;;;;;;;10392994;28;20034;-62
2023/01/11 10:15:12;;;;;;;3.70;2.80;;;;;;;;;;10388099;28;20033;-56
2023/01/11 10:20:34;;;;;;;4.57;3.30;;;;;;;;;;10376821;28;20017;-54
2023/01/11 10:25:45;;;;;;;5.57;3.05;;;;;;;;;;10373726;28;20026;-62
2023/01/11 10:41:56;;;;;;;5.65;3.05;;;;;;;;;;10384641;28;20041;-54
2023/01/11 10:46:58;;;;;;;7.78;3.85;;;;;;;;;;10406904;28;20104;-59
2023/01/11 10:52:17;;;;;;;5.53;3.13;;;;;;;;;;10379609;28;20042;-59
2023/01/11 10:57:46;;;;;;;3.83;3.35;;;;;;;;;;10399936;28;20025;-63
2023/01/11 11:03:19;;;;;;;3.20;2.78;;;;;;;;;;10396302;28;20042;-62
2023/01/11 11:08:36;;;;;;;6.00;3.33;;;;;;;;;;10395224;28;20207;-64
2023/01/11 11:13:52;;;;;;;4.50;2.97;;;;;;;;;;10397053;28;20067;-62
2023/01/11 11:18:57;;;;;;;4.60;3.20;;;;;;;;;;10404626;28;20030;-63
2023/01/11 11:24:04;;;;;;;4.57;2.92;;;;;;;;;;10400619;28;20034;-62
2023/01/11 11:29:09;;;;;;;4.95;3.10;;;;;;;;;;10390798;28;20120;-63
2023/01/11 11:34:19;;;;;;;3.35;2.88;;;;;;;;;;10395180;28;20072;-59
2023/01/11 11:39:27;;;;;;;4.22;3.20;;;;;;;;;;10377137;28;20031;-59
2023/01/11 11:44:28;;;;;;;6.30;3.30;;;;;;;;;;10397407;28;20029;-60
2023/01/11 11:49:34;;;;;;;4.03;2.80;;;;;;;;;;10399997;28;20459;-58
2023/01/11 11:54:40;;;;;;;4.25;2.65;;;;;;;;;;10378072;28;20080;-55
2023/01/11 11:59:46;;;;;;;3.78;3.00;;;;;;;;;;10402954;28;20458;-61
2023/01/11 12:04:48;;;;;;;5.90;3.10;;;;;;;;;;10392368;28;20385;-52
2023/01/11 12:09:58;;;;;;;3.85;2.60;;;;;;;;;;10394835;28;20134;-53
2023/01/11 12:15:14;;;;;;;4.90;2.88;;;;;;;;;;10392532;28;20504;-57
2023/01/11 12:20:40;;;;;;;3.63;2.65;;;;;;;;;;10385997;28;20033;-56
2023/01/11 12:26:06;;;;;;;5.10;2.92;;;;;;;;;;10390065;28;20084;-53
2023/01/11 12:31:46;;;;;;;5.40;2.97;;;;;;;;;;10397827;28;20036;-57
2023/01/11 12:37:00;;;;;;;8.20;3.22;;;;;;;;;;10388534;28;20381;-55
2023/01/11 12:42:36;;;;;;;3.45;2.70;;;;;;;;;;10395829;28;20030;-62
2023/01/11 12:47:48;;;;;;;3.65;2.80;;;;;;;;;;10382009;28;20535;-51
2023/01/11 12:53:15;;;;;;;4.55;2.55;;;;;;;;;;10378101;28;20045;-54
2023/01/11 12:58:43;;;;;;;4.90;2.72;;;;;;;;;;10397457;28;20079;-53
2023/01/11 13:04:25;;;;;;;4.13;2.78;;;;;;;;;;10389201;28;20448;-53
2023/01/11 13:09:49;;;;;;;2.85;2.33;;;;;;;;;;10395547;28;20290;-64
2023/01/11 13:15:54;;;;;;;3.15;2.60;;;;;;;;;;10406209;28;20380;-62
2023/01/11 13:21:35;;;;;;;4.60;2.65;;;;;;;;;;10363008;28;20408;-59
2023/01/11 13:26:44;;;;;;;2.90;2.60;;;;;;;;;;10350663;28;21397;-64
2023/01/11 13:31:47;;;;;;;5.57;2.90;;;;;;;;;;10362256;28;20127;-55
2023/01/11 13:37:02;;;;;;;3.30;2.70;;;;;;;;;;10354527;28;20046;-62
2023/01/11 13:42:20;;;;;;;3.88;2.60;;;;;;;;;;10338762;28;20057;-54
2023/01/11 13:47:39;;;;;;;2.83;2.33;;;;;;;;;;10342278;28;20050;-51
2023/01/11 13:53:12;;;;;;;3.25;2.60;;;;;;;;;;10365890;28;20042;-49
2023/01/11 13:58:27;;;;;;;3.75;2.65;;;;;;;;;;10390703;28;20018;-61
2023/01/11 14:03:43;;;;;;;4.18;2.53;;;;;;;;;;10405562;28;20025;-61
2023/01/11 14:09:15;;;;;;;5.57;2.40;;;;;;;;;;10396630;28;20034;-58
2023/01/11 14:14:44;;;;;;;4.03;2.60;;;;;;;;;;10393935;28;20036;-63
2023/01/11 14:20:08;;;;;;;4.63;2.58;;;;;;;;;;10388261;28;20047;-62
2023/01/11 14:25:21;;;;;;;2.85;2.42;;;;;;;;;;10398126;28;20037;-62
2023/01/11 14:30:30;;;;;;;2.95;2.40;;;;;;;;;;10398743;28;20029;-63
2023/01/11 14:35:49;;;;;;;;;;;;;;;;;;10405315;28;20037;-63
2023/01/11 14:41:12;;;;;;;5.50;2.60;;;;;;;;;;10394502;28;19964;-46
2023/01/11 14:46:41;;;;;;;3.78;2.47;;;;;;;;;;10392923;28;20026;-51
2023/01/11 14:51:42;;;;;;;5.22;2.67;;;;;;;;;;10398356;28;20037;-50
2023/01/11 14:56:42;;;;;;;3.08;2.38;;;;;;;;;;10390103;28;20795;-50
2023/01/11 15:02:08;;;;;;;7.80;3.47;;;;;;;;;;10382722;28;20041;-52
2023/01/11 15:07:29;;;;;;;5.45;2.72;;;;;;;;;;10384766;28;20041;-54
2023/01/11 15:12:38;;;;;;;6.97;2.72;;;;;;;;;;10390446;28;20040;-55
2023/01/11 15:23:03;;;;;;;4.75;2.10;;;;;;;;;;10383684;28;20100;-59
2023/01/11 15:28:49;;;;;;;6.25;2.85;;;;;;;;;;10395427;28;20761;-51
2023/01/11 15:33:53;;;;;;;2.88;2.25;;;;;;;;;;10390590;28;20037;-55
2023/01/11 15:39:04;;;;;;;4.07;2.60;;;;;;;;;;10397286;28;20033;-57
2023/01/11 15:44:14;;;;;;;3.65;2.42;;;;;;;;;;10397162;28;20037;-46
2023/01/11 15:49:57;;;;;;;4.68;2.67;;;;;;;;;;10398856;28;20092;-46
2023/01/11 15:55:38;;;;;;;3.47;2.20;;;;;;;;;;10373551;28;20050;-46
2023/01/11 16:01:07;;;;;;;3.75;2.30;;;;;;;;;;10395357;28;20493;-46
2023/01/11 16:06:46;;;;;;;4.90;2.50;;;;;;;;;;10381548;28;20032;-46
2023/01/11 16:12:33;;;;;;;4.30;2.28;;;;;;;;;;10390203;28;20401;-64
2023/01/11 16:17:38;;;;;;;6.10;2.40;;;;;;;;;;10392977;28;20064;-58
2023/01/11 16:22:39;;;;;;;3.17;2.10;;;;;;;;;;10389282;28;20491;-48
2023/01/11 16:27:39;;;;;;;2.80;2.35;;;;;;;;;;10385627;28;20036;-46
2023/01/11 16:32:40;;;;;;;3.05;2.72;;;;;;;;;;10395969;28;20029;-50
2023/01/11 16:37:44;;;;;;;4.05;2.60;;;;;;;;;;10395598;28;20449;-51
2023/01/11 16:42:57;;;;;;;7.93;2.65;;;;;;;;;;10407543;28;20137;-55
2023/01/11 16:48:05;;;;;;;3.50;2.50;;;;;;;;;;10401979;28;20101;-48
2023/01/11 16:53:14;;;;;;;7.13;2.70;;;;;;;;;;10379380;28;20077;-50
2023/01/11 16:58:24;;;;;;;2.60;2.40;;;;;;;;;;10401673;28;20030;-48
2023/01/11 17:03:31;;;;;;;4.43;2.90;;;;;;;;;;10406422;28;20030;-49
2023/01/11 17:08:38;;;;;;;4.40;2.60;;;;;;;;;;10406349;28;20397;-52
2023/01/11 17:14:08;;;;;;;5.47;2.55;;;;;;;;;;10399631;28;20029;-51
2023/01/11 17:19:19;;;;;;;4.40;2.70;;;;;;;;;;10411123;28;20382;-51
2023/01/11 17:24:23;;;;;;;8.02;2.88;;;;;;;;;;10400087;28;20084;-50
2023/01/11 17:29:39;;;;;;;4.00;2.85;;;;;;;;;;10397288;28;20432;-52
2023/01/11 17:34:41;;;;;;;6.75;3.13;;;;;;;;;;10384593;28;20025;-52
2023/01/11 17:39:48;;;;;;;5.05;2.92;;;;;;;;;;10391422;28;20041;-51
2023/01/11 17:50:31;;;;;;;8.40;3.22;;;;;;;;;;10399743;28;20137;-46
2023/01/11 17:55:33;;;;;;;7.95;3.20;;;;;;;;;;10387347;28;20165;-59
2023/01/11 18:00:33;;;;;;;6.50;3.30;;;;;;;;;;10388609;28;20057;-60
2023/01/11 18:05:35;;;;;;;7.07;3.40;;;;;;;;;;10390607;28;20030;-46
2023/01/11 18:10:38;;;;;;;4.47;2.83;;;;;;;;;;10405868;28;20021;-48
2023/01/11 18:15:39;;;;;;;8.00;3.10;;;;;;;;;;10409980;28;20570;-46
2023/01/11 18:20:41;;;;;;;6.13;3.53;;;;;;;;;;10381340;28;20080;-57
2023/01/11 18:25:45;;;;;;;7.85;3.97;;;;;;;;;;10401004;28;20227;-55
2023/01/11 18:30:52;;;;;;;11.18;3.70;;;;;;;;;;10401677;28;20499;-57
2023/01/11 18:35:59;;;;;;;12.18;3.70;;;;;;;;;;10392849;28;20026;-50
2023/01/11 18:46:26;;;;;;;9.20;3.85;;;;;;;;;;10405986;28;20029;-50
2023/01/11 18:51:35;;;;;;;10.50;3.70;;;;;;;;;;10399753;28;20053;-54
2023/01/11 18:56:36;;;;;;;9.82;3.70;;;;;;;;;;10405014;28;20029;-60
2023/01/11 19:01:37;;;;;;;5.70;3.45;;;;;;;;;;10386782;28;20029;-53
2023/01/11 19:06:38;;;;;;;13.95;3.60;;;;;;;;;;10386213;28;20395;-57
2023/01/11 19:11:38;;;;;;;8.75;3.58;;;;;;;;;;10396813;28;20042;-49
2023/01/11 19:16:39;;;;;;;7.55;3.88;;;;;;;;;;10386963;28;20045;-55
2023/01/11 19:21:39;;;;;;;10.70;3.90;;;;;;;;;;10384296;28;20128;-56
2023/01/11 19:26:40;;;;;;;7.05;4.10;;;;;;;;;;10378249;28;20037;-53
2023/01/11 19:31:45;;;;;;;6.80;4.00;;;;;;;;;;10383394;28;20091;-62
2023/01/11 19:36:48;;;;;;;10.07;4.25;;;;;;;;;;10376951;28;20038;-55
2023/01/11 19:42:00;;;;;;;6.10;4.07;;;;;;;;;;10386717;28;20037;-57
2023/01/11 19:47:02;;;;;;;8.88;4.18;;;;;;;;;;10393952;28;20029;-61
2023/01/11 19:52:04;;;;;;;9.35;5.05;;;;;;;;;;10391484;28;20455;-58
2023/01/11 19:57:12;;;;;;;9.95;5.45;;;;;;;;;;10381714;28;20044;-56
2023/01/11 20:02:15;;;;;;;11.30;4.05;;;;;;;;;;10397083;28;20068;-57
2023/01/11 20:07:16;;;;;;;8.98;4.45;;;;;;;;;;10399056;28;20042;-58
2023/01/11 20:12:17;;;;;;;8.63;4.53;;;;;;;;;;10395474;28;20045;-62
2023/01/11 20:17:19;;;;;;;9.48;4.40;;;;;;;;;;10384442;28;20034;-62
2023/01/11 20:22:24;;;;;;;7.57;4.63;;;;;;;;;;10375436;28;20030;-61
2023/01/11 20:27:26;;;;;;;8.30;4.80;;;;;;;;;;10377852;28;20083;-53
2023/01/11 20:32:27;;;;;;;16.98;5.15;;;;;;;;;;10388367;28;20425;-58
2023/01/11 20:37:28;;;;;;;22.42;6.13;;;;;;;;;;10369631;28;20029;-50
2023/01/11 20:42:29;;;;;;;18.35;6.07;;;;;;;;;;10371573;28;20025;-50
2023/01/11 20:47:30;;;;;;;14.48;5.70;;;;;;;;;;10370741;28;20026;-52
2023/01/11 20:52:31;;;;;;;11.75;5.35;;;;;;;;;;10373909;28;20046;-46
2023/01/11 20:57:31;;;;;;;20.27;6.10;;;;;;;;;;10380228;28;20030;-46
2023/01/11 21:02:32;;;;;;;8.85;4.97;;;;;;;;;;10383327;28;20041;-46
2023/01/11 21:07:32;;;;;;;9.63;5.00;;;;;;;;;;10383303;28;20064;-49
2023/01/11 21:12:33;;;;;;;14.02;6.07;;;;;;;;;;10383909;28;20033;-56
2023/01/11 21:17:34;;;;;;;9.75;5.18;;;;;;;;;;10386685;28;20493;-60
2023/01/11 21:22:34;;;;;;;10.82;4.93;;;;;;;;;;10379146;28;20118;-52
2023/01/11 21:27:35;;;;;;;11.90;5.28;;;;;;;;;;10399357;28;20041;-48
2023/01/11 21:32:36;;;;;;;6.40;4.43;;;;;;;;;;10380754;28;20034;-59
2023/01/11 21:37:36;;;;;;;11.60;5.00;;;;;;;;;;10381964;28;20053;-51
2023/01/11 21:42:37;;;;;;;10.07;5.07;;;;;;;;;;10389780;28;20041;-49
2023/01/11 21:47:38;;;;;;;14.80;4.75;;;;;;;;;;10390409;28;20029;-51
2023/01/11 21:52:39;;;;;;;10.70;4.32;;;;;;;;;;10380004;28;20049;-63
2023/01/11 21:57:39;;;;;;;9.60;4.85;;;;;;;;;;10390623;28;20045;-62
2023/01/11 22:02:40;;;;;;;7.43;4.10;;;;;;;;;;10378600;28;20052;-63
2023/01/11 22:07:42;;;;;;;12.35;4.65;;;;;;;;;;10392400;28;20034;-62
2023/01/11 22:12:42;;;;;;;12.30;5.13;;;;;;;;;;10393193;28;20065;-62
2023/01/11 22:17:43;;;;;;;5.45;3.80;;;;;;;;;;10391422;28;20030;-54
2023/01/11 22:22:44;;;;;;;6.78;4.38;;;;;;;;;;10385436;28;20083;-46
2023/01/11 22:27:44;;;;;;;7.35;4.13;;;;;;;;;;10387750;28;20873;-62
2023/01/11 22:32:46;;;;;;;7.60;4.30;;;;;;;;;;10387043;28;20045;-57
2023/01/11 22:37:47;;;;;;;10.90;4.10;;;;;;;;;;10387806;28;20041;-58
2023/01/11 22:42:48;;;;;;;9.77;4.35;;;;;;;;;;10396695;28;20048;-57
2023/01/11 22:47:49;;;;;;;6.72;4.13;;;;;;;;;;10384730;28;20033;-59
2023/01/11 22:52:49;;;;;;;11.07;4.80;;;;;;;;;;10382849;28;20049;-62
2023/01/11 22:57:50;;;;;;;13.93;5.30;;;;;;;;;;10386415;28;20439;-58
2023/01/11 23:02:50;;;;;;;19.02;5.38;;;;;;;;;;10387658;28;20495;-51
2023/01/11 23:07:51;;;;;;;22.67;6.28;;;;;;;;;;10376712;28;20033;-59
2023/01/11 23:18:11;;;;;;;18.27;6.22;;;;;;;;;;10399988;28;20431;-50
2023/01/11 23:23:12;;;;;;;13.45;6.20;;;;;;;;;;10397821;28;20037;-49
2023/01/11 23:28:13;;;;;;;18.83;6.80;;;;;;;;;;10384932;28;20025;-56
2023/01/11 23:33:14;;;;;;;16.00;7.05;;;;;;;;;;10390459;28;20025;-49
2023/01/11 23:38:14;;;;;;;16.55;6.43;;;;;;;;;;10381665;28;20029;-59
2023/01/11 23:43:15;;;;;;;13.13;6.47;;;;;;;;;;10389505;28;20032;-58
2023/01/11 23:48:15;;;;;;;13.63;6.88;;;;;;;;;;10391952;28;20040;-58
2023/01/11 23:53:16;;;;;;;11.80;5.60;;;;;;;;;;10386920;28;20045;-58
2023/01/11 23:58:18;;;;;;;14.15;6.05;;;;;;;;;;10383833;28;20033;-55
